首页
METAR-TAF:

METAR-TAF

机场 :

Eastern Oregon Regional Airport at Pendleton

Pendleton, 俄勒冈州, 美国

纬度: 45-41-54N, 经度: 118-50-03W, 海拔: 455米

当前天气观测

该预报发布于1小时和3分钟前的19:53 UTC
风速16节,风向南转西南
温度 13°C
湿度 30%
气压 1020 hPa
能見度: 16.1公里
天空无云

METAR: KPDT 131953Z 20016KT 10SM CLR 13/M04 A3013 RMK AO2 SLP200 T01331044

时间: 12:56 (20:56 UTC)

预报

该预报发布于3小时和36分钟前的17:20 UTC
预报有效从13日的 18点(UTC)到 14日的 18点(UTC)
风速12节,风向南转南东,有时为20节阵风
能見度: 10公里
散云层高于12000英尺
多云层高于20000英尺
从 14日的 1700点(UTC)
风速15节,风向,有时为25节阵风
能見度: 10公里
散云层高于5000英尺
多云层高于9000英尺

TAF: KPDT 131720Z 1318/1418 16012G20KT P6SM SCT120 BKN200 FM141700 18015G25KT P6SM SCT050 BKN090

超过4000个机场的气象观测和天气预报(METAR&TAF报告)。

可查询的气象台以黄色和红色小点在地图上表示。

将鼠标移到小点上方,可查看气象台名称。

然后点击查看天气观测和预报。

如需切换地图:点击带黑十字的绿色按钮放大地图;点击带横线的绿色按钮缩小地图;或者点击绿色箭头查看邻近地区的地图。


METAR-TAF: